DW3039 Karjalohja FI current weather conditions

sailwx.info

Wind from 199

Air temperature -5.0° C
Dewpoint -6.1° C

Last reported at 2016-Dec-10 13:49 UTC.
Time now 2016-Dec-10 14:45 UTC

Location: N 60°16' E 023°41'.
View on Google Maps.

See reports from other nearby stations

  
Tides and Currents Weather Stations Pressure Air Temp Water Temp Dewpoint Dewpoint Depression Visibility Wind Speed Wind Dir Waves Ship Positions
date/time (UTC)wind fromknots sea level pressurealtimeterstation pressurevisibilityair tempwater tempwave heightnotes
2016-Dec-10 13:49 199 -5.0
2016-Dec-10 13:39 199 -5.0
2016-Dec-10 13:29 199 -5.0
2016-Dec-10 13:19 199 -4.4
2016-Dec-10 13:09 199 -4.4
2016-Dec-10 12:59 199 -4.4
2016-Dec-10 12:49 199 -4.4
2016-Dec-10 12:39 199 -4.4
2016-Dec-10 12:29 199 -4.4
2016-Dec-10 12:19 244 0 gusting 5 -4.4
2016-Dec-10 12:09 250 0 gusting 5 -4.4
2016-Dec-10 11:59 256 1 gusting 5 -4.4
2016-Dec-10 11:49 241 0 gusting 5 -4.4
2016-Dec-10 11:39 239 1 gusting 5 -4.4
2016-Dec-10 11:29 249 2 gusting 7 -4.4
2016-Dec-10 11:19 273 0 gusting 3 -4.4
2016-Dec-10 11:09 247 1 gusting 5 -4.4
2016-Dec-10 10:59 255 0 gusting 3 -4.4
2016-Dec-10 10:49 314 -4.4
2016-Dec-10 10:39 314 -4.4
2016-Dec-10 10:16 254 -5.0
2016-Dec-10 10:06 242 -5.0
2016-Dec-10 09:56 320 4 gusting 6 -5.0
2016-Dec-10 09:46 259 -5.0
2016-Dec-10 09:36 275 0 gusting 3 -5.0
2016-Dec-10 09:26 297 -5.0
2016-Dec-10 09:16 295 -5.0
2016-Dec-10 09:06 292 -5.0
2016-Dec-10 08:56 292 -5.0
2016-Dec-10 08:46 251 0 gusting 5 -5.0
2016-Dec-10 08:36 290 0 gusting 3 -5.0
2016-Dec-10 08:26 276 0 gusting 5 -5.0
2016-Dec-10 08:16 286 -5.0
2016-Dec-10 08:06 289 0 gusting 3 -5.0
2016-Dec-10 07:56 307 1 gusting 6 -5.0
2016-Dec-10 07:46 215 -5.0
2016-Dec-10 07:36 230 -5.0
2016-Dec-10 07:26 311 0 gusting 5 -5.0
2016-Dec-10 07:15 324 2 gusting 5 -5.0
2016-Dec-10 07:05 311 -4.4
2016-Dec-10 06:55 341 1 gusting 4 -4.4
2016-Dec-10 06:45 310 -4.4
2016-Dec-10 06:35 282 -4.4
2016-Dec-10 06:25 282 -4.4
2016-Dec-10 06:15 306 -4.4
2016-Dec-10 06:05 306 -4.4
2016-Dec-10 05:55 282 0 gusting 4 -4.4
2016-Dec-10 05:45 298 1 gusting 3 -4.4
2016-Dec-10 05:35 248 -4.4
2016-Dec-10 05:25 302 -4.4
2016-Dec-10 05:15 268 -4.4
2016-Dec-10 05:05 313 -4.4
2016-Dec-10 04:55 312 2 gusting 5 -4.4
2016-Dec-10 04:45 321 2 gusting 6 -3.9
2016-Dec-10 04:35 311 -3.9
2016-Dec-10 04:25 334 1 gusting 4 -3.9
2016-Dec-10 04:15 328 2 gusting 7 -3.3
2016-Dec-10 04:05 271 0 gusting 6 -3.3
2016-Dec-10 03:55 253 2 gusting 6 -3.3
2016-Dec-10 03:45 322 2 gusting 6 -3.3
2016-Dec-10 03:35 304 3 gusting 6 -3.3
2016-Dec-10 03:25 321 3 gusting 6 -3.3
2016-Dec-10 03:15 223 -3.3
2016-Dec-10 03:05 314 2 gusting 6 -3.3
2016-Dec-10 02:55 315 2 gusting 6 -3.3
2016-Dec-10 02:45 288 0 gusting 6 -2.8
2016-Dec-10 02:35 311 1 gusting 5 -2.8
2016-Dec-10 02:25 297 0 gusting 5 -2.8
2016-Dec-10 02:15 283 -2.8
2016-Dec-10 02:05 279 -2.8
2016-Dec-10 01:55 246 2 gusting 6 -2.2
2016-Dec-10 01:45 258 0 gusting 5 -2.2
2016-Dec-10 01:35 256 0 gusting 4 -2.2
2016-Dec-10 01:25 255 1 gusting 5 -2.2
2016-Dec-10 01:15 220 -2.2
2016-Dec-10 01:05 253 1 gusting 6 -2.2
2016-Dec-10 00:55 316 1 gusting 3 -2.2
2016-Dec-10 00:45 296 1 gusting 5 -2.2
2016-Dec-10 00:35 249 3 gusting 6 -2.2
2016-Dec-10 00:25 245 5 gusting 9 -2.2
2016-Dec-10 00:14 249 2 gusting 6 -1.7
2016-Dec-10 00:04 215 -1.7
2016-Dec-09 23:54 268 1 gusting 7 -1.7
2016-Dec-09 23:44 262 1 gusting 6 -1.7
2016-Dec-09 23:34 334 -1.7
2016-Dec-09 23:24 256 0 gusting 3 -1.7
2016-Dec-09 23:14 247 3 gusting 6 -1.7
2016-Dec-09 23:04 264 1 gusting 5 -1.7
2016-Dec-09 22:54 291 -1.7
2016-Dec-09 22:44 294 1 gusting 6 -1.1
2016-Dec-09 22:34 237 3 gusting 6 -1.1
2016-Dec-09 22:24 246 3 gusting 6 -1.1
2016-Dec-09 22:14 322 1 gusting 5 -1.1
2016-Dec-09 22:04 247 -1.1
2016-Dec-09 21:54 242 -1.1
2016-Dec-09 21:44 248 2 gusting 7 -1.1
2016-Dec-09 21:34 236 0 gusting 4 -1.1
2016-Dec-09 21:24 306 1 gusting 5 -1.1
2016-Dec-09 21:14 302 2 gusting 6 -1.1
2016-Dec-09 21:04 287 1 gusting 6 -0.6
2016-Dec-09 20:54 286 2 gusting 6 -0.6
2016-Dec-09 20:44 305 2 gusting 7 -0.6
2016-Dec-09 20:34 316 1 gusting 6 -0.6
2016-Dec-09 20:24 313 3 gusting 8 -0.6
2016-Dec-09 20:14 301 5 gusting 6 -0.6
2016-Dec-09 20:04 310 2 gusting 10 -0.6
2016-Dec-09 19:54 353 4 gusting 10 -0.0
2016-Dec-09 19:44 334 3 gusting 10 -0.0
2016-Dec-09 19:34 317 2 gusting 6 -0.0
2016-Dec-09 19:24 003 -0.0
2016-Dec-09 19:14 332 3 gusting 10 0.6
2016-Dec-09 19:04 304 3 gusting 8 0.6
2016-Dec-09 18:53 336 7 gusting 11 0.6
2016-Dec-09 18:43 333 1 gusting 6 1.1
2016-Dec-09 18:33 310 0 gusting 4 1.1
2016-Dec-09 18:23 286 2 gusting 6 1.1
2016-Dec-09 18:13 313 4 gusting 10 1.1
2016-Dec-09 18:03 303 4 gusting 10 1.1
2016-Dec-09 17:53 304 4 gusting 8 1.7
2016-Dec-09 17:43 332 6 gusting 9 1.7
2016-Dec-09 17:33 302 2 gusting 8 1.7
2016-Dec-09 17:23 334 6 gusting 11 1.7
2016-Dec-09 17:13 333 6 gusting 11 1.7
2016-Dec-09 17:03 312 4 gusting 13 1.7
2016-Dec-09 16:53 334 6 gusting 10 2.2
2016-Dec-09 16:43 316 4 gusting 8 2.2
2016-Dec-09 16:33 297 1 gusting 5 2.2
2016-Dec-09 16:23 298 0 gusting 4 2.2
2016-Dec-09 16:13 292 2.2
2016-Dec-09 16:03 245 1 gusting 4 2.2
2016-Dec-09 15:53 248 2 gusting 4 2.2
2016-Dec-09 15:43 330 2.8
2016-Dec-09 15:33 278 2.8
2016-Dec-09 15:23 317 3 gusting 7 2.8
2016-Dec-09 15:13 329 3 gusting 10 2.8
2016-Dec-09 15:03 314 1 gusting 6 2.8
2016-Dec-09 14:53 339 5 gusting 8 2.8
2016-Dec-09 14:43 320 1 gusting 4 2.8
2016-Dec-09 14:33 326 0 gusting 3 2.8
2016-Dec-09 14:22 297 0 gusting 1 2.8
2016-Dec-09 14:12 303 2 gusting 6 3.3
2016-Dec-09 14:02 326 1 gusting 6 3.3
2016-Dec-09 13:52 267 0 gusting 5 3.3
2016-Dec-09 13:42 257 1 gusting 6 3.3
2016-Dec-09 13:32 253 0 gusting 5 3.3
2016-Dec-09 13:22 254 2 gusting 7 3.3
2016-Dec-09 13:00 255 0 gusting 6 3.3
2016-Dec-09 12:50 258 0 gusting 6 2.8
2016-Dec-09 12:40 243 3 gusting 7 2.8
2016-Dec-09 12:30 236 1 gusting 5 2.8
2016-Dec-09 12:08 240 1 gusting 4 2.8
2016-Dec-09 11:58 244 2.8
2016-Dec-09 11:48 243 0 gusting 6 2.8
2016-Dec-09 11:38 244 2 gusting 5 2.8
2016-Dec-09 11:28 238 3 gusting 6 2.8
2016-Dec-09 11:18 239 2.8
2016-Dec-09 11:07 264 0 gusting 6 2.8
2016-Dec-09 10:57 249 3 gusting 6 2.8
2016-Dec-09 10:47 221 1 gusting 6 2.8
2016-Dec-09 10:37 239 1 gusting 5 2.8
2016-Dec-09 10:27 246 1 gusting 4 2.8
2016-Dec-09 10:16 322 0 gusting 6 2.2
2016-Dec-09 10:06 190 2.2
2016-Dec-09 09:56 210 2.2
2016-Dec-09 09:46 210 2.2
2016-Dec-09 09:36 266 2.2
2016-Dec-09 09:26 226 1 gusting 5 2.2
2016-Dec-09 09:16 256 2.2
2016-Dec-09 09:06 245 2.2
2016-Dec-09 08:56 219 2 gusting 6 2.2
2016-Dec-09 08:46 254 2.2
2016-Dec-09 08:36 239 3 gusting 6 2.2
2016-Dec-09 08:25 278 0 gusting 4 2.2
2016-Dec-09 08:15 239 3 gusting 6 2.2
2016-Dec-09 08:05 243 2 gusting 5 2.2
2016-Dec-09 07:55 247 2.2
2016-Dec-09 07:45 238 2.2
2016-Dec-09 07:35 238 2 gusting 6 2.2
2016-Dec-09 07:25 253 0 gusting 6 2.2
2016-Dec-09 07:15 204 0 gusting 6 2.2
2016-Dec-09 07:05 247 1 gusting 6 2.2
2016-Dec-09 06:55 236 0 gusting 4 2.2
2016-Dec-09 06:45 244 2.2
2016-Dec-09 06:35 242 2 gusting 8 1.7
2016-Dec-09 06:25 250 0 gusting 4 2.2
2016-Dec-09 06:15 236 0 gusting 3 2.2
2016-Dec-09 06:05 249 0 gusting 3 2.2
2016-Dec-09 05:55 184 2.2
2016-Dec-09 05:45 241 2.2
2016-Dec-09 05:35 241 2.2
2016-Dec-09 05:25 256 1 gusting 6 2.2
2016-Dec-09 05:15 248 2 gusting 8 2.2
2016-Dec-09 05:05 283 2.8
2016-Dec-09 04:54 292 2 gusting 7 2.8
2016-Dec-09 04:44 314 3 gusting 9 2.8
2016-Dec-09 04:34 254 3 gusting 8 2.8
2016-Dec-09 04:24 249 5 gusting 11 2.8
2016-Dec-09 04:14 291 2 gusting 6 2.8
2016-Dec-09 04:04 274 2 gusting 8 3.3
2016-Dec-09 03:54 309 1 gusting 9 3.3
2016-Dec-09 03:44 257 1 gusting 10 3.3
2016-Dec-09 03:34 253 5 gusting 11 2.8
2016-Dec-09 03:24 256 5 gusting 10 2.8
2016-Dec-09 03:14 256 5 gusting 9 2.8
2016-Dec-09 03:04 262 4 gusting 10 2.8
2016-Dec-09 02:54 250 4 gusting 9 2.8
2016-Dec-09 02:44 235 1 gusting 6 2.2
2016-Dec-09 02:34 238 2 gusting 6 2.2
2016-Dec-09 02:24 191 2.2
2016-Dec-09 02:14 242 2 gusting 6 2.2
2016-Dec-09 02:04 242 0 gusting 5 2.2
2016-Dec-09 01:54 194 2.2
2016-Dec-09 01:44 252 1.7
2016-Dec-09 01:34 244 0 gusting 4 1.7
2016-Dec-09 01:24 219 1 gusting 6 1.7
2016-Dec-09 01:14 220 1 gusting 6 1.7
2016-Dec-09 01:04 222 3 gusting 7 1.7
2016-Dec-09 00:53 219 3 gusting 6 1.7
2016-Dec-09 00:43 221 2 gusting 6 1.7
2016-Dec-09 00:33 216 1 gusting 6 1.7
2016-Dec-09 00:23 223 1 gusting 4 1.7
2016-Dec-09 00:13 201 1.7
2016-Dec-09 00:03 201 1.7
2016-Dec-08 23:53 201 1.7
2016-Dec-08 23:43 201 1.7
2016-Dec-08 23:33 224 1.7
2016-Dec-08 23:23 226 1 gusting 6 1.7
2016-Dec-08 23:13 219 1 gusting 3 1.7
2016-Dec-08 23:03 266 1.7
2016-Dec-08 22:53 266 1.7
2016-Dec-08 22:43 244 0 gusting 5 1.7
2016-Dec-08 22:33 247 1.7
2016-Dec-08 22:23 249 3 gusting 7 1.7
2016-Dec-08 22:13 249 1.7
2016-Dec-08 22:03 249 2 gusting 8 1.7
2016-Dec-08 21:53 247 1 gusting 6 1.7
2016-Dec-08 21:43 254 1 gusting 6 1.7
2016-Dec-08 21:33 225 0 gusting 4 2.2
2016-Dec-08 21:23 200 2.2
2016-Dec-08 21:13 224 0 gusting 6 2.2
2016-Dec-08 21:03 238 2.2
2016-Dec-08 20:53 241 0 gusting 4 2.2
2016-Dec-08 20:43 251 0 gusting 5 2.2
2016-Dec-08 20:33 250 0 gusting 6 2.2
2016-Dec-08 20:23 250 2.2
2016-Dec-08 20:12 251 1 gusting 6 2.2
2016-Dec-08 20:02 252 2.2
2016-Dec-08 19:52 239 0 gusting 5 2.2
2016-Dec-08 19:42 239 2.2
2016-Dec-08 19:32 239 2.2
2016-Dec-08 19:22 239 2.2
2016-Dec-08 19:12 239 2.2
2016-Dec-08 19:02 239 2.2
2016-Dec-08 18:52 239 2.2
2016-Dec-08 18:42 239 2.2
2016-Dec-08 18:32 239 2.2
2016-Dec-08 18:22 239 2.2
2016-Dec-08 18:12 239 2.2
2016-Dec-08 18:02 239 2.2
2016-Dec-08 17:41 239 1.7
2016-Dec-08 17:31 239 2.2
2016-Dec-08 17:21 239 1.7
2016-Dec-08 17:11 239 0 gusting 1 1.7
2016-Dec-08 17:01 227 1.7
2016-Dec-08 16:51 227 1.7
2016-Dec-08 16:41 227 1.7
2016-Dec-08 16:31 227 1.7
2016-Dec-08 16:23 227 1.7
2016-Dec-08 16:11 227 1.7
2016-Dec-08 16:01 227 1.7
2016-Dec-08 15:51 227 1.7
2016-Dec-08 15:41 227 1.7
2016-Dec-08 15:31 227 1.7
2016-Dec-08 15:21 227 1.7
2016-Dec-08 15:11 227 1.7
2016-Dec-08 15:01 227 1.7
2016-Dec-08 14:51 227 1.7
2016-Dec-08 14:41 227 1.7
2016-Dec-08 14:31 227 1.7
2016-Dec-08 14:21 227 1.7
2016-Dec-08 14:11 227 1.7
2016-Dec-08 14:01 227 1.7